Time;durP1;ratioP1;P1;durP2;ratioP2;P2;SDS_P1;SDS_P2;PMS_P1;PMS_P2;Temp;Humidity;BMP_temperature;BMP_pressure;BME280_temperature;BME280_humidity;BME280_pressure;Samples;Min_cycle;Max_cycle;Signal;HPM_P1;HPM_P2
2022/04/14 00:02:02;;;;;;;;;;;;;;;12.73;63.34;101222.97;5057040;28;21337;-71
2022/04/14 00:04:28;;;;;;;;;;;;;;;12.55;63.71;101224.78;5060686;28;20012;-70
2022/04/14 00:06:54;;;;;;;;;;;;;;;12.38;64.38;101220.38;5059619;28;19960;-70
2022/04/14 00:09:22;;;;;;;;;;;;;;;12.43;64.19;101221.00;5059759;28;20449;-70
2022/04/14 00:11:49;;;;;;;;;;;;;;;12.62;63.50;101227.03;5058703;28;19982;-70
2022/04/14 00:14:15;;;;;;;;;;;;;;;12.69;62.96;101233.66;5058792;28;20043;-70
2022/04/14 00:16:42;;;;;;;;;;;;;;;12.62;63.04;101247.22;5062576;28;19960;-70
2022/04/14 00:19:08;;;;;;;;;;;;;;;12.50;63.73;101238.16;5057283;28;20013;-70
2022/04/14 00:21:34;;;;;;;;;;;;;;;12.46;64.27;101241.03;5056378;28;19944;-70
2022/04/14 00:24:01;;;;;;;;;;;;;;;12.52;64.59;101246.00;5059486;28;20365;-70
2022/04/14 00:26:27;;;;;;;;;;;;;;;12.49;64.83;101246.97;5057620;28;19956;-70
2022/04/14 00:28:54;;;;;;;;;;;;;;;12.64;64.99;101250.59;5057829;28;20036;-70
2022/04/14 00:31:20;;;;;;;;;;;;;;;12.95;64.39;101255.13;5058901;28;19972;-70
2022/04/14 00:33:47;;;;;;;;;;;;;;;12.98;64.75;101265.47;5056220;28;19993;-70
2022/04/14 00:36:13;;;;;;;;;;;;;;;13.16;64.91;101264.53;5059699;28;20506;-70
2022/04/14 00:38:40;;;;;;;;;;;;;;;13.21;64.58;101270.41;5061457;28;20285;-70
2022/04/14 00:41:06;;;;;;;;;;;;;;;13.26;64.89;101276.28;5061736;28;19929;-70
2022/04/14 00:43:33;;;;;;;;;;;;;;;13.25;65.15;101273.72;5060638;28;20939;-70
2022/04/14 00:46:01;;;;;;;;;;;;;;;13.67;63.43;101266.09;5059634;28;19987;-70
2022/04/14 00:48:28;;;;;;;;;;;;;;;12.97;65.66;101284.84;5058842;28;19959;-70
2022/04/14 00:50:54;;;;;;;;;;;;;;;13.25;64.82;101278.97;5055732;28;19967;-70
2022/04/14 00:53:21;;;;;;;;;;;;;;;12.91;66.28;101283.38;5061823;28;20347;-70
2022/04/14 00:55:47;;;;;;;;;;;;;;;12.85;66.46;101286.34;5054702;28;19959;-70
2022/04/14 00:58:13;;;;;;;;;;;;;;;12.69;67.21;101302.06;5059434;28;20017;-70
2022/04/14 01:00:39;;;;;;;;;;;;;;;13.13;66.01;101301.56;5055123;28;19960;-70
2022/04/14 01:03:07;;;;;;;;;;;;;;;13.47;64.79;101301.44;5055904;28;20002;-70
2022/04/14 01:05:33;;;;;;;;;;;;;;;13.29;65.55;101293.69;5058922;28;19967;-70
2022/04/14 01:08:00;;;;;;;;;;;;;;;12.96;67.44;101304.19;5058324;28;19935;-70
2022/04/14 01:10:26;;;;;;;;;;;;;;;13.00;67.45;101300.47;5057724;28;19967;-70
2022/04/14 01:12:53;;;;;;;;;;;;;;;13.21;67.59;101299.38;5061259;28;19936;-70
2022/04/14 01:15:19;;;;;;;;;;;;;;;13.36;67.08;101303.81;5060106;28;19967;-70
2022/04/14 01:17:45;;;;;;;;;;;;;;;13.46;67.36;101310.28;5054866;28;20014;-70
2022/04/14 01:20:13;;;;;;;;;;;;;;;13.37;68.12;101310.78;5057698;28;20738;-70
2022/04/14 01:22:43;;;;;;;;;;;;;;;13.36;69.39;101308.22;5053423;28;19928;-70
2022/04/14 01:25:11;;;;;;;;;;;;;;;13.25;70.95;101306.16;5058214;28;19964;-70
2022/04/14 01:27:37;;;;;;;;;;;;;;;12.89;73.22;101318.63;5057323;28;20412;-70
2022/04/14 01:30:04;;;;;;;;;;;;;;;12.93;74.71;101322.78;5056026;28;20013;-70
2022/04/14 01:32:30;;;;;;;;;;;;;;;12.90;75.59;101336.09;5054547;28;20013;-70
2022/04/14 01:34:56;;;;;;;;;;;;;;;12.98;75.75;101334.78;5053629;28;20048;-70
2022/04/14 01:37:22;;;;;;;;;;;;;;;13.04;76.53;101338.88;5058492;28;19956;-70
2022/04/14 01:39:48;;;;;;;;;;;;;;;13.10;76.67;101334.16;5053972;28;20025;-70
2022/04/14 01:42:16;;;;;;;;;;;;;;;13.12;76.61;101328.81;5056328;28;20688;-70
2022/04/14 01:44:42;;;;;;;;;;;;;;;13.07;77.12;101330.81;5053194;28;19967;-70
2022/04/14 01:47:08;;;;;;;;;;;;;;;13.07;77.97;101339.56;5057431;28;19935;-70
2022/04/14 01:49:34;;;;;;;;;;;;;;;13.04;77.97;101330.97;5052874;28;19959;-70
2022/04/14 01:52:01;;;;;;;;;;;;;;;13.27;77.20;101330.63;5056659;28;20736;-70
2022/04/14 01:54:27;;;;;;;;;;;;;;;12.92;79.32;101336.88;5053934;28;19932;-70
2022/04/14 01:56:53;;;;;;;;;;;;;;;12.96;79.48;101338.41;5056864;28;19964;-70
2022/04/14 01:59:21;;;;;;;;;;;;;;;13.16;78.44;101354.03;5058072;28;19956;-70
2022/04/14 02:01:47;;;;;;;;;;;;;;;12.87;80.04;101355.53;5055589;28;19968;-70
2022/04/14 02:04:13;;;;;;;;;;;;;;;12.90;79.91;101363.25;5053264;28;19964;-70
2022/04/14 02:06:41;;;;;;;;;;;;;;;12.81;80.28;101358.50;5054851;28;20400;-70
2022/04/14 02:09:07;;;;;;;;;;;;;;;13.33;77.81;101367.19;5052305;28;20020;-70
2022/04/14 02:11:33;;;;;;;;;;;;;;;13.43;77.36;101372.81;5056896;28;20395;-70
2022/04/14 02:13:59;;;;;;;;;;;;;;;13.37;77.34;101366.09;5056295;28;19964;-70
2022/04/14 02:16:27;;;;;;;;;;;;;;;13.53;76.72;101363.47;5055866;28;19968;-70
2022/04/14 02:18:53;;;;;;;;;;;;;;;13.40;77.08;101362.44;5054553;28;19964;-70
2022/04/14 02:21:19;;;;;;;;;;;;;;;13.45;76.64;101355.16;5058163;28;19971;-70
2022/04/14 02:23:45;;;;;;;;;;;;;;;13.36;77.09;101364.38;5057066;28;20005;-70
2022/04/14 02:26:12;;;;;;;;;;;;;;;13.47;76.28;101358.53;5054981;28;20464;-70
2022/04/14 02:28:38;;;;;;;;;;;;;;;13.42;76.80;101357.94;5055081;28;19975;-70
2022/04/14 02:31:04;;;;;;;;;;;;;;;13.45;76.40;101363.06;5057009;28;19955;-70
2022/04/14 02:33:32;;;;;;;;;;;;;;;13.48;75.76;101362.88;5056133;28;20016;-70
2022/04/14 02:35:58;;;;;;;;;;;;;;;13.35;76.17;101357.41;5059692;28;19951;-70
2022/04/14 02:38:24;;;;;;;;;;;;;;;13.43;75.75;101363.13;5058699;28;19928;-70
2022/04/14 02:40:51;;;;;;;;;;;;;;;13.57;75.33;101360.59;5057926;28;19928;-70
2022/04/14 02:43:17;;;;;;;;;;;;;;;13.47;74.86;101356.75;5058964;28;20013;-70
2022/04/14 02:45:43;;;;;;;;;;;;;;;13.63;74.61;101362.06;5057722;28;20346;-70
2022/04/14 02:48:09;;;;;;;;;;;;;;;13.49;75.16;101361.94;5053957;28;20467;-70
2022/04/14 02:50:38;;;;;;;;;;;;;;;13.57;74.52;101368.50;5059433;28;19928;-70
2022/04/14 02:53:04;;;;;;;;;;;;;;;13.59;74.67;101363.16;5056147;28;19928;-70
2022/04/14 02:55:31;;;;;;;;;;;;;;;13.36;75.16;101363.53;5059438;28;19976;-70
2022/04/14 02:57:57;;;;;;;;;;;;;;;13.46;75.40;101372.63;5056819;28;19928;-70
2022/04/14 03:00:23;;;;;;;;;;;;;;;13.55;74.71;101357.22;5058458;28;19955;-70
2022/04/14 03:02:49;;;;;;;;;;;;;;;13.65;74.44;101368.09;5058391;28;20442;-70
2022/04/14 03:05:16;;;;;;;;;;;;;;;13.69;74.17;101363.50;5057339;28;19928;-73
2022/04/14 03:07:44;;;;;;;;;;;;;;;13.62;74.63;101366.47;5057438;28;19963;-73
2022/04/14 03:10:10;;;;;;;;;;;;;;;13.74;74.11;101366.75;5059239;28;19985;-73
2022/04/14 03:12:40;;;;;;;;;;;;;;;13.93;73.53;101365.63;5053958;28;19963;-73
2022/04/14 03:15:07;;;;;;;;;;;;;;;14.13;72.34;101359.25;5059344;28;20439;-73
2022/04/14 03:17:33;;;;;;;;;;;;;;;14.09;72.44;101358.56;5059756;28;20060;-73
2022/04/14 03:19:59;;;;;;;;;;;;;;;13.98;72.40;101355.69;5054711;28;19935;-73
2022/04/14 03:22:26;;;;;;;;;;;;;;;13.61;73.98;101361.28;5063397;28;20448;-73
2022/04/14 03:24:55;;;;;;;;;;;;;;;13.92;72.91;101365.72;5058661;28;20014;-73
2022/04/14 03:27:21;;;;;;;;;;;;;;;13.46;74.67;101364.75;5057491;28;19964;-73
2022/04/14 03:29:48;;;;;;;;;;;;;;;13.47;74.90;101369.94;5062501;28;20018;-73
2022/04/14 03:32:14;;;;;;;;;;;;;;;13.27;75.37;101369.28;5061569;28;19935;-73
2022/04/14 03:34:40;;;;;;;;;;;;;;;13.31;75.25;101376.94;5057792;28;20625;-73
2022/04/14 03:37:07;;;;;;;;;;;;;;;13.48;74.69;101373.44;5062636;28;19973;-72
2022/04/14 03:39:33;;;;;;;;;;;;;;;13.31;75.25;101374.31;5062040;28;20018;-73
2022/04/14 03:42:00;;;;;;;;;;;;;;;13.14;76.08;101379.63;5057028;28;19928;-73
2022/04/14 03:44:27;;;;;;;;;;;;;;;13.50;74.58;101382.09;5059372;28;19964;-73
2022/04/14 03:46:53;;;;;;;;;;;;;;;13.55;74.15;101383.56;5059389;28;19932;-73
2022/04/14 03:49:19;;;;;;;;;;;;;;;13.67;73.52;101378.56;5059514;28;19968;-73
2022/04/14 03:51:45;;;;;;;;;;;;;;;13.83;72.64;101377.63;5056874;28;19951;-74
2022/04/14 03:54:11;;;;;;;;;;;;;;;13.18;75.61;101377.69;5060567;28;19967;-73
2022/04/14 03:56:38;;;;;;;;;;;;;;;13.22;75.41;101385.34;5062395;28;20016;-73
2022/04/14 03:59:05;;;;;;;;;;;;;;;12.91;76.75;101383.41;5059287;28;19983;-73
2022/04/14 04:01:31;;;;;;;;;;;;;;;13.07;76.05;101384.31;5062647;28;19932;-73
2022/04/14 04:03:58;;;;;;;;;;;;;;;13.56;74.31;101387.03;5061989;28;20032;-73
2022/04/14 04:06:24;;;;;;;;;;;;;;;13.98;72.19;101394.38;5061738;28;20037;-73
2022/04/14 04:08:50;;;;;;;;;;;;;;;13.93;72.09;101391.97;5055933;28;20017;-73
2022/04/14 04:11:16;;;;;;;;;;;;;;;13.96;71.93;101391.84;5062399;28;19928;-73
2022/04/14 04:13:43;;;;;;;;;;;;;;;14.02;71.54;101399.41;5062595;28;19972;-73
2022/04/14 04:16:11;;;;;;;;;;;;;;;13.91;72.16;101411.47;5062527;28;19960;-74
2022/04/14 04:18:37;;;;;;;;;;;;;;;14.21;70.78;101409.78;5060189;28;19935;-73
2022/04/14 04:21:04;;;;;;;;;;;;;;;14.19;70.56;101416.09;5061840;28;19964;-73
2022/04/14 04:23:30;;;;;;;;;;;;;;;14.22;70.67;101410.63;5062657;28;19932;-73
2022/04/14 04:25:57;;;;;;;;;;;;;;;14.05;71.49;101412.41;5058019;28;20022;-73
2022/04/14 04:28:30;;;;;;;;;;;;;;;13.65;73.10;101418.16;5062440;28;20641;-73
2022/04/14 04:30:56;;;;;;;;;;;;;;;14.09;71.86;101411.31;5061086;28;20591;-73
2022/04/14 04:33:24;;;;;;;;;;;;;;;14.29;71.32;101412.00;5060141;28;20361;-73
2022/04/14 04:35:50;;;;;;;;;;;;;;;14.39;70.70;101408.78;5060701;28;19989;-73
2022/04/14 04:38:16;;;;;;;;;;;;;;;13.72;73.24;101421.31;5060735;28;20021;-73
2022/04/14 04:40:42;;;;;;;;;;;;;;;13.69;73.86;101418.84;5061247;28;20372;-73
2022/04/14 04:43:09;;;;;;;;;;;;;;;13.93;73.41;101420.16;5059874;28;19928;-73
2022/04/14 04:45:35;;;;;;;;;;;;;;;14.28;71.90;101421.69;5061726;28;19928;-72
2022/04/14 04:48:02;;;;;;;;;;;;;;;14.21;72.18;101430.88;5060176;28;20687;-72
2022/04/14 04:50:29;;;;;;;;;;;;;;;13.93;72.74;101428.06;5061308;28;19935;-72
2022/04/14 04:52:56;;;;;;;;;;;;;;;13.94;73.43;101430.59;5067621;28;20326;-72
2022/04/14 04:55:22;;;;;;;;;;;;;;;14.25;72.21;101428.91;5069741;28;20007;-72
2022/04/14 04:57:48;;;;;;;;;;;;;;;14.33;72.01;101435.47;5073011;28;19921;-72
2022/04/14 05:00:15;;;;;;;;;;;;;;;14.48;71.61;101436.44;5089135;28;20382;-73
2022/04/14 05:02:41;;;;;;;;;;;;;;;14.63;70.71;101439.97;5087433;28;19923;-73
2022/04/14 05:05:08;;;;;;;;;;;;;;;14.76;70.46;101436.53;5069017;28;19920;-73
2022/04/14 05:07:35;;;;;;;;;;;;;;;14.93;69.89;101440.81;5069670;28;19920;-73
2022/04/14 05:10:01;;;;;;;;;;;;;;;14.90;69.71;101446.28;5068465;28;20368;-73
2022/04/14 05:12:28;;;;;;;;;;;;;;;14.86;70.24;101437.69;5069448;28;19920;-73
2022/04/14 05:14:54;;;;;;;;;;;;;;;14.99;69.62;101443.97;5068662;28;19920;-73
2022/04/14 05:17:20;;;;;;;;;;;;;;;14.77;70.51;101440.88;5068969;28;19951;-73
2022/04/14 05:19:46;;;;;;;;;;;;;;;14.77;70.90;101445.31;5087181;28;19920;-72
2022/04/14 05:22:12;;;;;;;;;;;;;;;14.90;70.33;101441.88;5089691;28;20457;-72
2022/04/14 05:24:40;;;;;;;;;;;;;;;14.78;71.09;101444.38;5089426;28;19969;-72
2022/04/14 05:27:06;;;;;;;;;;;;;;;14.57;72.29;101447.31;5089667;28;20003;-72
2022/04/14 05:29:35;;;;;;;;;;;;;;;14.34;73.23;101447.75;5086496;28;19920;-72
2022/04/14 05:32:01;;;;;;;;;;;;;;;14.46;73.10;101451.47;5088992;28;20311;-72
2022/04/14 05:34:27;;;;;;;;;;;;;;;14.93;71.73;101441.69;5075428;28;20407;-72
2022/04/14 05:36:53;;;;;;;;;;;;;;;14.75;72.08;101436.63;5068482;28;19950;-72
2022/04/14 05:39:20;;;;;;;;;;;;;;;14.82;72.74;101438.00;5068392;28;20300;-73
2022/04/14 05:41:47;;;;;;;;;;;;;;;14.42;74.42;101448.16;5068911;28;19921;-72
2022/04/14 05:44:13;;;;;;;;;;;;;;;14.49;74.25;101452.16;5068540;28;19956;-73
2022/04/14 05:46:40;;;;;;;;;;;;;;;14.59;73.86;101448.09;5068570;28;19924;-72
2022/04/14 05:49:06;;;;;;;;;;;;;;;14.81;73.51;101446.84;5069169;28;19970;-73
2022/04/14 05:51:32;;;;;;;;;;;;;;;14.79;73.49;101438.16;5069070;28;19924;-72
2022/04/14 05:53:58;;;;;;;;;;;;;;;14.83;73.62;101439.66;5068700;28;19920;-73
2022/04/14 05:56:24;;;;;;;;;;;;;;;15.13;72.83;101443.16;5068119;28;20284;-72
2022/04/14 05:58:53;;;;;;;;;;;;;;;14.92;73.17;101441.78;5078934;28;19928;-72
2022/04/14 06:01:19;;;;;;;;;;;;;;;14.91;73.90;101437.44;5088551;28;20372;-72
2022/04/14 06:03:45;;;;;;;;;;;;;;;14.57;74.74;101441.16;5085256;28;19928;-73
2022/04/14 06:06:13;;;;;;;;;;;;;;;14.99;73.96;101440.47;5068339;28;19982;-73
2022/04/14 06:08:39;;;;;;;;;;;;;;;14.97;74.48;101437.91;5067660;28;19924;-73
2022/04/14 06:11:06;;;;;;;;;;;;;;;14.93;74.37;101435.53;5066914;28;20017;-71
2022/04/14 06:13:32;;;;;;;;;;;;;;;14.98;73.97;101429.06;5068231;28;19947;-72
2022/04/14 06:16:00;;;;;;;;;;;;;;;15.11;73.61;101432.66;5068034;28;20582;-72
2022/04/14 06:18:26;;;;;;;;;;;;;;;15.01;74.08;101433.31;5065961;28;19924;-71
2022/04/14 06:20:54;;;;;;;;;;;;;;;15.23;73.61;101433.72;5087664;28;20272;-71
2022/04/14 06:23:20;;;;;;;;;;;;;;;15.27;73.56;101427.31;5075137;28;19924;-71
2022/04/14 06:25:49;;;;;;;;;;;;;;;14.95;74.42;101428.41;5086293;28;19984;-71
2022/04/14 06:28:15;;;;;;;;;;;;;;;15.17;73.99;101434.09;5068223;28;20295;-72
2022/04/14 06:30:42;;;;;;;;;;;;;;;15.15;73.84;101433.34;5066468;28;20173;-72
2022/04/14 06:33:09;;;;;;;;;;;;;;;15.18;73.54;101440.25;5067861;28;19924;-71
2022/04/14 06:35:36;;;;;;;;;;;;;;;15.29;74.08;101438.66;5067626;28;19920;-71
2022/04/14 06:38:02;;;;;;;;;;;;;;;15.26;74.08;101443.28;5068007;28;19965;-71
2022/04/14 06:40:28;;;;;;;;;;;;;;;15.29;74.23;101448.38;5067567;28;19924;-71
2022/04/14 06:42:54;;;;;;;;;;;;;;;15.59;72.69;101455.31;5068318;28;20316;-71
2022/04/14 06:45:20;;;;;;;;;;;;;;;15.55;72.88;101456.47;5068134;28;21350;-71
2022/04/14 06:47:47;;;;;;;;;;;;;;;15.49;73.58;101462.13;5067961;28;19948;-71
2022/04/14 06:50:14;;;;;;;;;;;;;;;15.58;73.17;101463.34;5066743;28;19920;-71
2022/04/14 06:52:40;;;;;;;;;;;;;;;15.47;73.55;101468.41;5067993;28;20372;-71
2022/04/14 06:55:08;;;;;;;;;;;;;;;15.60;73.81;101466.75;5069458;28;20489;-72
2022/04/14 06:57:34;;;;;;;;;;;;;;;15.69;73.74;101468.84;5071883;28;19920;-72
2022/04/14 07:00:00;;;;;;;;;;;;;;;15.99;70.91;101474.03;5071711;28;20376;-71
2022/04/14 07:02:26;;;;;;;;;;;;;;;15.76;71.82;101477.25;5071190;28;19920;-71
2022/04/14 07:04:53;;;;;;;;;;;;;;;15.44;73.04;101493.25;5070462;28;19920;-72
2022/04/14 07:07:20;;;;;;;;;;;;;;;15.32;74.12;101487.81;5067705;28;19950;-71
2022/04/14 07:09:46;;;;;;;;;;;;;;;15.59;73.06;101489.69;5069449;28;19972;-71
2022/04/14 07:12:13;;;;;;;;;;;;;;;15.71;73.33;101492.53;5071487;28;19950;-71
2022/04/14 07:14:39;;;;;;;;;;;;;;;15.62;72.73;101490.47;5071058;28;19927;-71
2022/04/14 07:17:06;;;;;;;;;;;;;;;15.82;71.92;101503.28;5069550;28;20011;-71
2022/04/14 07:19:32;;;;;;;;;;;;;;;15.70;72.08;101501.41;5067699;28;19958;-71
2022/04/14 07:21:58;;;;;;;;;;;;;;;15.99;72.37;101497.84;5070467;28;19920;-71
2022/04/14 07:24:26;;;;;;;;;;;;;;;16.08;71.54;101500.75;5070827;28;20363;-71
2022/04/14 07:26:52;;;;;;;;;;;;;;;16.22;71.17;101499.88;5071557;28;19978;-72
2022/04/14 07:29:18;;;;;;;;;;;;;;;16.03;70.95;101499.34;5068625;28;19920;-72
2022/04/14 07:31:45;;;;;;;;;;;;;;;15.85;72.02;101503.94;5079509;28;19924;-72
2022/04/14 07:34:14;;;;;;;;;;;;;;;15.90;72.05;101507.19;5070821;28;19928;-72
2022/04/14 07:36:40;;;;;;;;;;;;;;;15.95;71.22;101513.03;5071003;28;20366;-72
2022/04/14 07:39:06;;;;;;;;;;;;;;;16.44;70.75;101509.97;5070264;28;19920;-72
2022/04/14 07:41:34;;;;;;;;;;;;;;;16.60;70.04;101515.13;5071354;28;19966;-72
2022/04/14 07:44:00;;;;;;;;;;;;;;;16.26;70.57;101513.78;5069569;28;19970;-72
2022/04/14 07:46:26;;;;;;;;;;;;;;;16.40;69.82;101509.31;5070003;28;19947;-72
2022/04/14 07:48:52;;;;;;;;;;;;;;;16.51;70.31;101513.91;5068629;28;20257;-72
2022/04/14 07:51:18;;;;;;;;;;;;;;;16.20;70.81;101517.66;5069568;28;20019;-72
2022/04/14 07:53:44;;;;;;;;;;;;;;;16.17;71.30;101528.44;5070411;28;19920;-72
2022/04/14 07:56:11;;;;;;;;;;;;;;;16.04;71.32;101523.03;5069354;28;19920;-72
2022/04/14 07:58:39;;;;;;;;;;;;;;;15.82;71.88;101532.38;5068773;28;19970;-72
2022/04/14 08:01:05;;;;;;;;;;;;;;;15.94;72.00;101532.50;5067601;28;19925;-72
2022/04/14 08:03:32;;;;;;;;;;;;;;;15.87;72.01;101541.75;5070211;28;19920;-71
2022/04/14 08:05:58;;;;;;;;;;;;;;;15.77;72.30;101534.47;5067302;28;19925;-71
2022/04/14 08:08:24;;;;;;;;;;;;;;;15.79;72.93;101541.38;5069847;28;20621;-71
2022/04/14 08:10:51;;;;;;;;;;;;;;;16.05;72.77;101537.97;5068879;28;19928;-71
2022/04/14 08:13:19;;;;;;;;;;;;;;;15.99;72.59;101534.88;5068424;28;19920;-71
2022/04/14 08:15:47;;;;;;;;;;;;;;;15.77;73.66;101540.63;5067232;28;19920;-71
2022/04/14 08:18:13;;;;;;;;;;;;;;;15.49;75.18;101540.56;5069011;28;19920;-71
2022/04/14 08:20:40;;;;;;;;;;;;;;;15.60;75.00;101540.75;5067421;28;19978;-71
2022/04/14 08:23:07;;;;;;;;;;;;;;;15.74;74.53;101546.06;5069012;28;19927;-71
2022/04/14 08:25:34;;;;;;;;;;;;;;;15.49;74.97;101540.56;5069348;28;19950;-71
2022/04/14 08:28:02;;;;;;;;;;;;;;;15.53;75.32;101548.22;5070073;28;19928;-71
2022/04/14 08:30:29;;;;;;;;;;;;;;;15.68;74.33;101551.72;5068631;28;19920;-71
2022/04/14 08:32:59;;;;;;;;;;;;;;;15.51;74.64;101558.03;5068145;28;19990;-70
2022/04/14 08:35:26;;;;;;;;;;;;;;;15.31;75.07;101565.38;5069200;28;19974;-70
2022/04/14 08:37:52;;;;;;;;;;;;;;;15.50;75.50;101558.97;5069177;28;19929;-70
2022/04/14 08:40:21;;;;;;;;;;;;;;;15.36;76.51;101558.06;5067524;28;19963;-71
2022/04/14 08:42:51;;;;;;;;;;;;;;;15.51;75.96;101560.69;5059881;28;20452;-71
2022/04/14 08:45:21;;;;;;;;;;;;;;;15.45;76.71;101554.84;5069356;28;19970;-71
2022/04/14 08:47:49;;;;;;;;;;;;;;;15.39;77.08;101550.78;5069251;28;19920;-72
2022/04/14 08:50:17;;;;;;;;;;;;;;;15.78;75.58;101541.47;5053414;28;19926;-72
2022/04/14 08:52:43;;;;;;;;;;;;;;;15.96;75.58;101550.94;5069095;28;20434;-72
2022/04/14 08:55:11;;;;;;;;;;;;;;;16.12;74.49;101554.31;5069247;28;19920;-72
2022/04/14 08:57:37;;;;;;;;;;;;;;;16.60;72.99;101555.72;5068884;28;19920;-72
2022/04/14 09:00:05;;;;;;;;;;;;;;;16.32;73.76;101551.28;5067633;28;19932;-72
2022/04/14 09:02:33;;;;;;;;;;;;;;;16.34;73.64;101552.03;5053230;28;19928;-72
2022/04/14 09:04:59;;;;;;;;;;;;;;;16.22;74.17;101541.38;5069233;28;20376;-72
2022/04/14 09:07:27;;;;;;;;;;;;;;;16.36;72.69;101554.59;5067901;28;19921;-73
2022/04/14 09:09:54;;;;;;;;;;;;;;;16.07;73.37;101546.66;5067059;28;19920;-71
2022/04/14 09:12:20;;;;;;;;;;;;;;;15.95;74.25;101549.22;5068658;28;19982;-71
2022/04/14 09:14:47;;;;;;;;;;;;;;;15.86;75.58;101547.97;5068935;28;19924;-71
2022/04/14 09:17:13;;;;;;;;;;;;;;;15.99;75.01;101542.81;5068653;28;19981;-72
2022/04/14 09:19:41;;;;;;;;;;;;;;;15.69;75.31;101540.22;5067685;28;20384;-72
2022/04/14 09:22:08;;;;;;;;;;;;;;;15.29;77.46;101546.16;5087477;28;19927;-72
2022/04/14 09:24:43;;;;;;;;;;;;;;;15.01;78.72;101554.78;5070988;28;19950;-72
2022/04/14 09:27:10;;;;;;;;;;;;;;;15.29;77.45;101547.00;5068893;28;20356;-72
2022/04/14 09:29:36;;;;;;;;;;;;;;;15.43;76.85;101541.75;5068411;28;19920;-72
2022/04/14 09:32:05;;;;;;;;;;;;;;;15.45;76.96;101552.22;5069209;28;19920;-73
2022/04/14 09:34:48;;;;;;;;;;;;;;;15.49;76.61;101543.19;5069365;28;19974;-72
2022/04/14 09:37:15;;;;;;;;;;;;;;;15.23;77.57;101565.81;5068925;28;19920;-72
2022/04/14 09:39:53;;;;;;;;;;;;;;;15.49;76.38;101556.41;5068058;28;19924;-72
2022/04/14 09:42:20;;;;;;;;;;;;;;;15.49;76.95;101556.41;5048789;28;20390;-72
2022/04/14 09:44:47;;;;;;;;;;;;;;;15.74;75.99;101563.75;5053539;28;19921;-72
2022/04/14 09:47:22;;;;;;;;;;;;;;;15.83;75.74;101563.19;5088514;28;19927;-72
2022/04/14 09:49:48;;;;;;;;;;;;;;;15.55;76.25;101551.63;5088184;28;19998;-73
2022/04/14 09:52:14;;;;;;;;;;;;;;;15.34;77.06;101562.56;5071156;28;19925;-72
2022/04/14 09:54:40;;;;;;;;;;;;;;;15.24;77.52;101556.97;5088839;28;19977;-72
2022/04/14 09:57:10;;;;;;;;;;;;;;;15.36;77.25;101547.47;5079199;28;20372;-72
2022/04/14 09:59:37;;;;;;;;;;;;;;;15.51;76.63;101550.13;5068011;28;19920;-72
2022/04/14 10:02:11;;;;;;;;;;;;;;;15.37;76.94;101542.09;5067805;28;19928;-72
2022/04/14 10:04:38;;;;;;;;;;;;;;;15.76;75.78;101541.56;5067930;28;20401;-73
2022/04/14 10:07:06;;;;;;;;;;;;;;;15.73;76.50;101543.53;5068403;28;20018;-72
2022/04/14 10:09:33;;;;;;;;;;;;;;;15.85;76.10;101542.81;5068381;28;19924;-72
2022/04/14 10:11:59;;;;;;;;;;;;;;;15.95;75.81;101542.13;5068537;28;20393;-72
2022/04/14 10:14:27;;;;;;;;;;;;;;;15.81;75.78;101549.22;5068281;28;20026;-72
2022/04/14 10:16:54;;;;;;;;;;;;;;;15.73;76.49;101552.31;5068063;28;19936;-72
2022/04/14 10:19:21;;;;;;;;;;;;;;;15.80;76.07;101553.66;5067224;28;19921;-72
2022/04/14 10:21:47;;;;;;;;;;;;;;;16.24;73.66;101556.22;5068202;28;19970;-73
2022/04/14 10:24:14;;;;;;;;;;;;;;;16.12;74.06;101549.03;5068118;28;20523;-73
2022/04/14 10:26:41;;;;;;;;;;;;;;;16.41;73.81;101557.78;5048470;28;19921;-73
2022/04/14 10:29:08;;;;;;;;;;;;;;;16.64;72.52;101559.00;5052780;28;20436;-73
2022/04/14 10:31:37;;;;;;;;;;;;;;;16.47;73.72;101555.63;5067485;28;19920;-73
2022/04/14 10:34:04;;;;;;;;;;;;;;;16.43;73.47;101550.63;5067981;28;19968;-72
2022/04/14 10:36:31;;;;;;;;;;;;;;;15.86;75.43;101558.56;5068029;28;20015;-72
2022/04/14 10:38:58;;;;;;;;;;;;;;;15.72;77.22;101558.53;5066780;28;19920;-73
2022/04/14 10:41:27;;;;;;;;;;;;;;;15.84;77.37;101554.31;5068257;28;19920;-73
2022/04/14 10:43:55;;;;;;;;;;;;;;;16.19;75.54;101565.34;5068559;28;19928;-73
2022/04/14 10:46:30;;;;;;;;;;;;;;;16.47;74.30;101563.56;5067784;28;20297;-72
2022/04/14 10:49:10;;;;;;;;;;;;;;;16.16;76.59;101561.13;5067069;28;20353;-72
2022/04/14 10:51:36;;;;;;;;;;;;;;;15.94;76.95;101571.31;5068111;28;19927;-73
2022/04/14 10:54:04;;;;;;;;;;;;;;;16.10;75.62;101568.59;5068329;28;19927;-73
2022/04/14 10:56:43;;;;;;;;;;;;;;;16.12;76.02;101578.13;5067924;28;19920;-73
2022/04/14 10:59:11;;;;;;;;;;;;;;;16.22;76.15;101576.59;5067064;28;19927;-72
2022/04/14 11:01:57;;;;;;;;;;;;;;;16.09;76.42;101580.97;5067665;28;20285;-73
2022/04/14 11:04:30;;;;;;;;;;;;;;;16.08;76.22;101571.31;5068000;28;19928;-74
2022/04/14 11:06:59;;;;;;;;;;;;;;;16.22;75.29;101575.78;5067592;28;19920;-73
2022/04/14 11:09:44;;;;;;;;;;;;;;;16.22;75.95;101573.13;5066689;28;19928;-73
2022/04/14 11:12:12;;;;;;;;;;;;;;;16.66;74.43;101583.63;5067225;28;20364;-72
2022/04/14 11:14:43;;;;;;;;;;;;;;;16.35;74.98;101584.66;5075736;28;19920;-72
2022/04/14 11:17:30;;;;;;;;;;;;;;;16.44;75.54;101589.38;5087840;28;20367;-73
2022/04/14 11:20:12;;;;;;;;;;;;;;;16.50;74.60;101589.84;5045869;28;19920;-73
2022/04/14 11:22:53;;;;;;;;;;;;;;;16.21;76.16;101587.31;5047380;28;20004;-73
2022/04/14 11:25:38;;;;;;;;;;;;;;;15.73;78.42;101586.69;5046608;28;19921;-73
2022/04/14 11:28:18;;;;;;;;;;;;;;;15.21;80.90;101583.56;5072234;28;19978;-71
2022/04/14 11:30:44;;;;;;;;;;;;;;;15.40;80.34;101578.94;5077887;28;19924;-71
2022/04/14 11:33:12;;;;;;;;;;;;;;;15.05;81.10;101578.31;5067721;28;19970;-72
2022/04/14 11:35:44;;;;;;;;;;;;;;;15.01;82.17;101574.13;5067422;28;19921;-71
2022/04/14 11:38:11;;;;;;;;;;;;;;;15.54;79.70;101555.22;5065515;28;19970;-71
2022/04/14 11:40:39;;;;;;;;;;;;;;;15.22;81.54;101548.31;5067060;28;20549;-71
2022/04/14 11:43:08;;;;;;;;;;;;;;;15.54;79.76;101543.78;5079282;28;20013;-72
2022/04/14 11:45:35;;;;;;;;;;;;;;;15.71;79.67;101545.41;5070621;28;19924;-72
2022/04/14 11:48:03;;;;;;;;;;;;;;;15.34;80.87;101520.28;5070262;28;20338;-72
2022/04/14 11:50:32;;;;;;;;;;;;;;;14.95;82.58;101532.25;5069762;28;19959;-71
2022/04/14 11:53:00;;;;;;;;;;;;;;;15.01;83.24;101554.78;5069768;28;20003;-71
2022/04/14 11:55:36;;;;;;;;;;;;;;;14.79;83.56;101541.97;5079995;28;20334;-71
2022/04/14 11:58:04;;;;;;;;;;;;;;;14.68;85.50;101549.63;5091309;28;20564;-71
2022/04/14 12:00:30;;;;;;;;;;;;;;;15.15;82.94;101575.16;5074007;28;19989;-71
2022/04/14 12:03:01;;;;;;;;;;;;;;;15.34;82.25;101584.56;5071740;28;19978;-71
2022/04/14 12:05:27;;;;;;;;;;;;;;;15.56;81.60;101579.75;5082712;28;19927;-70
2022/04/14 12:08:05;;;;;;;;;;;;;;;15.70;80.43;101572.81;5080869;28;19943;-71
2022/04/14 12:10:32;;;;;;;;;;;;;;;16.08;79.10;101568.66;5080548;28;19920;-70
2022/04/14 12:13:05;;;;;;;;;;;;;;;16.30;77.42;101545.22;5079944;28;19920;-71
2022/04/14 12:15:31;;;;;;;;;;;;;;;15.19;80.13;101558.19;5080534;28;19981;-71
2022/04/14 12:18:04;;;;;;;;;;;;;;;15.73;79.22;101562.03;5086874;28;19970;-71
2022/04/14 12:20:35;;;;;;;;;;;;;;;15.89;78.68;101544.31;5071493;28;19920;-71
2022/04/14 12:23:01;;;;;;;;;;;;;;;16.00;78.54;101563.03;5068646;28;19927;-71
2022/04/14 12:25:27;;;;;;;;;;;;;;;16.10;77.83;101571.25;5075019;28;19924;-71
2022/04/14 12:27:55;;;;;;;;;;;;;;;16.30;77.27;101561.09;5049743;28;20019;-71
2022/04/14 12:30:22;;;;;;;;;;;;;;;16.18;76.62;101579.56;5055635;28;19924;-71
2022/04/14 12:32:48;;;;;;;;;;;;;;;16.08;76.55;101572.19;5070255;28;19950;-71
2022/04/14 12:35:29;;;;;;;;;;;;;;;16.22;76.52;101573.97;5070271;28;19970;-71
2022/04/14 12:37:55;;;;;;;;;;;;;;;16.04;76.76;101580.38;5063133;28;19920;-71